sensor_id;sensor_type;location;lat;lon;timestamp;P1;durP1;ratioP1;P2;durP2;ratioP2
10721;SDS011;5412;59.450;18.124;2022-07-24T00:00:41;1.05;;;0.98;;
10721;SDS011;5412;59.450;18.124;2022-07-24T00:03:07;1.00;;;0.80;;
10721;SDS011;5412;59.450;18.124;2022-07-24T00:05:33;1.17;;;0.90;;
10721;SDS011;5412;59.450;18.124;2022-07-24T00:07:59;1.52;;;0.90;;
10721;SDS011;5412;59.450;18.124;2022-07-24T00:10:24;0.90;;;0.65;;
10721;SDS011;5412;59.450;18.124;2022-07-24T00:12:50;1.02;;;0.80;;
10721;SDS011;5412;59.450;18.124;2022-07-24T00:15:16;2.92;;;0.90;;
10721;SDS011;5412;59.450;18.124;2022-07-24T00:17:42;0.90;;;0.90;;
10721;SDS011;5412;59.450;18.124;2022-07-24T00:20:08;3.67;;;0.85;;
10721;SDS011;5412;59.450;18.124;2022-07-24T00:22:34;1.00;;;0.90;;
10721;SDS011;5412;59.450;18.124;2022-07-24T00:25:00;0.80;;;0.75;;
10721;SDS011;5412;59.450;18.124;2022-07-24T00:27:26;0.80;;;0.80;;
10721;SDS011;5412;59.450;18.124;2022-07-24T00:29:51;0.90;;;0.90;;
10721;SDS011;5412;59.450;18.124;2022-07-24T00:32:17;0.77;;;0.77;;
10721;SDS011;5412;59.450;18.124;2022-07-24T00:34:43;1.25;;;0.80;;
10721;SDS011;5412;59.450;18.124;2022-07-24T00:37:08;1.35;;;0.77;;
10721;SDS011;5412;59.450;18.124;2022-07-24T00:39:34;1.30;;;0.88;;
10721;SDS011;5412;59.450;18.124;2022-07-24T00:41:59;2.47;;;0.95;;
10721;SDS011;5412;59.450;18.124;2022-07-24T00:44:25;1.73;;;1.00;;
10721;SDS011;5412;59.450;18.124;2022-07-24T00:46:51;1.00;;;0.90;;
10721;SDS011;5412;59.450;18.124;2022-07-24T00:49:17;1.25;;;1.08;;
10721;SDS011;5412;59.450;18.124;2022-07-24T00:51:45;0.93;;;0.93;;
10721;SDS011;5412;59.450;18.124;2022-07-24T00:54:14;1.83;;;1.00;;
10721;SDS011;5412;59.450;18.124;2022-07-24T00:56:43;1.45;;;1.00;;
10721;SDS011;5412;59.450;18.124;2022-07-24T00:59:11;1.30;;;0.98;;
10721;SDS011;5412;59.450;18.124;2022-07-24T01:01:37;0.77;;;0.77;;
10721;SDS011;5412;59.450;18.124;2022-07-24T01:04:03;1.10;;;0.80;;
10721;SDS011;5412;59.450;18.124;2022-07-24T01:06:29;0.70;;;0.70;;
10721;SDS011;5412;59.450;18.124;2022-07-24T01:08:55;1.63;;;0.82;;
10721;SDS011;5412;59.450;18.124;2022-07-24T01:11:21;0.88;;;0.88;;
10721;SDS011;5412;59.450;18.124;2022-07-24T01:13:47;1.13;;;0.90;;
10721;SDS011;5412;59.450;18.124;2022-07-24T01:16:14;1.50;;;0.80;;
10721;SDS011;5412;59.450;18.124;2022-07-24T01:18:40;0.82;;;0.82;;
10721;SDS011;5412;59.450;18.124;2022-07-24T01:21:06;0.98;;;0.88;;
10721;SDS011;5412;59.450;18.124;2022-07-24T01:23:33;1.65;;;1.08;;
10721;SDS011;5412;59.450;18.124;2022-07-24T01:25:58;1.35;;;0.82;;
10721;SDS011;5412;59.450;18.124;2022-07-24T01:28:25;1.88;;;1.08;;
10721;SDS011;5412;59.450;18.124;2022-07-24T01:30:50;0.70;;;0.70;;
10721;SDS011;5412;59.450;18.124;2022-07-24T01:33:16;1.15;;;1.05;;
10721;SDS011;5412;59.450;18.124;2022-07-24T01:35:42;0.85;;;0.85;;
10721;SDS011;5412;59.450;18.124;2022-07-24T01:38:08;3.50;;;0.88;;
10721;SDS011;5412;59.450;18.124;2022-07-24T01:40:35;1.90;;;0.95;;
10721;SDS011;5412;59.450;18.124;2022-07-24T01:43:01;0.80;;;0.80;;
10721;SDS011;5412;59.450;18.124;2022-07-24T01:45:27;0.75;;;0.75;;
10721;SDS011;5412;59.450;18.124;2022-07-24T01:47:53;1.88;;;1.20;;
10721;SDS011;5412;59.450;18.124;2022-07-24T01:50:18;0.80;;;0.80;;
10721;SDS011;5412;59.450;18.124;2022-07-24T01:52:44;1.00;;;1.00;;
10721;SDS011;5412;59.450;18.124;2022-07-24T01:55:10;1.48;;;0.82;;
10721;SDS011;5412;59.450;18.124;2022-07-24T01:57:35;0.70;;;0.70;;
10721;SDS011;5412;59.450;18.124;2022-07-24T02:00:03;0.80;;;0.80;;
10721;SDS011;5412;59.450;18.124;2022-07-24T02:02:30;3.22;;;0.75;;
10721;SDS011;5412;59.450;18.124;2022-07-24T02:04:56;0.98;;;0.90;;
10721;SDS011;5412;59.450;18.124;2022-07-24T02:07:22;0.77;;;0.77;;
10721;SDS011;5412;59.450;18.124;2022-07-24T02:09:47;1.23;;;0.90;;
10721;SDS011;5412;59.450;18.124;2022-07-24T02:12:13;0.68;;;0.68;;
10721;SDS011;5412;59.450;18.124;2022-07-24T02:14:38;0.80;;;0.80;;
10721;SDS011;5412;59.450;18.124;2022-07-24T02:17:04;0.80;;;0.80;;
10721;SDS011;5412;59.450;18.124;2022-07-24T02:19:30;0.70;;;0.70;;
10721;SDS011;5412;59.450;18.124;2022-07-24T02:21:56;0.90;;;0.90;;
10721;SDS011;5412;59.450;18.124;2022-07-24T02:24:21;0.80;;;0.80;;
10721;SDS011;5412;59.450;18.124;2022-07-24T02:26:47;0.70;;;0.70;;
10721;SDS011;5412;59.450;18.124;2022-07-24T02:29:13;0.73;;;0.73;;
10721;SDS011;5412;59.450;18.124;2022-07-24T02:31:39;2.65;;;0.60;;
10721;SDS011;5412;59.450;18.124;2022-07-24T02:34:05;0.85;;;0.85;;
10721;SDS011;5412;59.450;18.124;2022-07-24T02:36:30;0.68;;;0.68;;
10721;SDS011;5412;59.450;18.124;2022-07-24T02:38:56;2.15;;;0.63;;
10721;SDS011;5412;59.450;18.124;2022-07-24T02:41:22;2.85;;;0.80;;
10721;SDS011;5412;59.450;18.124;2022-07-24T02:43:47;1.05;;;0.70;;
10721;SDS011;5412;59.450;18.124;2022-07-24T02:46:13;1.17;;;0.88;;
10721;SDS011;5412;59.450;18.124;2022-07-24T02:48:38;0.88;;;0.80;;
10721;SDS011;5412;59.450;18.124;2022-07-24T02:51:04;0.70;;;0.70;;
10721;SDS011;5412;59.450;18.124;2022-07-24T02:53:30;0.93;;;0.90;;
10721;SDS011;5412;59.450;18.124;2022-07-24T02:55:56;0.85;;;0.85;;
10721;SDS011;5412;59.450;18.124;2022-07-24T02:58:21;1.42;;;0.90;;
10721;SDS011;5412;59.450;18.124;2022-07-24T03:00:47;2.00;;;0.80;;
10721;SDS011;5412;59.450;18.124;2022-07-24T03:03:12;1.00;;;0.90;;
10721;SDS011;5412;59.450;18.124;2022-07-24T03:05:38;0.90;;;0.90;;
10721;SDS011;5412;59.450;18.124;2022-07-24T03:08:04;1.13;;;1.02;;
10721;SDS011;5412;59.450;18.124;2022-07-24T03:10:30;1.13;;;0.98;;
10721;SDS011;5412;59.450;18.124;2022-07-24T03:12:55;0.75;;;0.75;;
10721;SDS011;5412;59.450;18.124;2022-07-24T03:15:21;1.00;;;1.00;;
10721;SDS011;5412;59.450;18.124;2022-07-24T03:17:47;1.15;;;1.10;;
10721;SDS011;5412;59.450;18.124;2022-07-24T03:20:17;1.00;;;1.00;;
10721;SDS011;5412;59.450;18.124;2022-07-24T03:22:43;0.98;;;0.98;;
10721;SDS011;5412;59.450;18.124;2022-07-24T03:25:10;1.02;;;1.02;;
10721;SDS011;5412;59.450;18.124;2022-07-24T03:27:35;1.20;;;1.10;;
10721;SDS011;5412;59.450;18.124;2022-07-24T03:30:02;1.00;;;1.00;;
10721;SDS011;5412;59.450;18.124;2022-07-24T03:32:28;2.20;;;1.10;;
10721;SDS011;5412;59.450;18.124;2022-07-24T03:34:54;0.93;;;0.90;;
10721;SDS011;5412;59.450;18.124;2022-07-24T03:37:19;2.67;;;1.20;;
10721;SDS011;5412;59.450;18.124;2022-07-24T03:39:45;2.75;;;1.05;;
10721;SDS011;5412;59.450;18.124;2022-07-24T03:42:10;4.50;;;1.40;;
10721;SDS011;5412;59.450;18.124;2022-07-24T03:44:36;1.45;;;1.20;;
10721;SDS011;5412;59.450;18.124;2022-07-24T03:47:02;2.05;;;1.20;;
10721;SDS011;5412;59.450;18.124;2022-07-24T03:49:27;4.15;;;2.17;;
10721;SDS011;5412;59.450;18.124;2022-07-24T03:51:53;1.35;;;1.15;;
10721;SDS011;5412;59.450;18.124;2022-07-24T03:54:19;2.78;;;1.20;;
10721;SDS011;5412;59.450;18.124;2022-07-24T03:56:44;1.15;;;1.08;;
10721;SDS011;5412;59.450;18.124;2022-07-24T03:59:10;2.35;;;1.33;;
10721;SDS011;5412;59.450;18.124;2022-07-24T04:01:35;1.50;;;1.40;;
10721;SDS011;5412;59.450;18.124;2022-07-24T04:04:01;1.40;;;1.17;;
10721;SDS011;5412;59.450;18.124;2022-07-24T04:06:30;1.40;;;1.30;;
10721;SDS011;5412;59.450;18.124;2022-07-24T04:08:59;1.30;;;1.20;;
10721;SDS011;5412;59.450;18.124;2022-07-24T04:11:25;1.90;;;1.45;;
10721;SDS011;5412;59.450;18.124;2022-07-24T04:13:51;4.70;;;1.40;;
10721;SDS011;5412;59.450;18.124;2022-07-24T04:16:17;1.30;;;1.20;;
10721;SDS011;5412;59.450;18.124;2022-07-24T04:18:43;3.30;;;1.25;;
10721;SDS011;5412;59.450;18.124;2022-07-24T04:21:08;2.53;;;1.42;;
10721;SDS011;5412;59.450;18.124;2022-07-24T04:23:34;1.30;;;1.20;;
10721;SDS011;5412;59.450;18.124;2022-07-24T04:26:00;1.65;;;1.10;;
10721;SDS011;5412;59.450;18.124;2022-07-24T04:28:26;1.75;;;1.38;;
10721;SDS011;5412;59.450;18.124;2022-07-24T04:30:51;2.53;;;1.40;;
10721;SDS011;5412;59.450;18.124;2022-07-24T04:33:17;1.30;;;1.20;;
10721;SDS011;5412;59.450;18.124;2022-07-24T04:35:43;2.08;;;1.40;;
10721;SDS011;5412;59.450;18.124;2022-07-24T04:38:08;1.70;;;1.40;;
10721;SDS011;5412;59.450;18.124;2022-07-24T04:40:34;1.40;;;1.30;;
10721;SDS011;5412;59.450;18.124;2022-07-24T04:43:00;2.10;;;1.38;;
10721;SDS011;5412;59.450;18.124;2022-07-24T04:45:25;2.85;;;1.60;;
10721;SDS011;5412;59.450;18.124;2022-07-24T04:47:51;1.42;;;1.33;;
10721;SDS011;5412;59.450;18.124;2022-07-24T04:50:16;1.40;;;1.30;;
10721;SDS011;5412;59.450;18.124;2022-07-24T04:52:42;1.50;;;1.40;;
10721;SDS011;5412;59.450;18.124;2022-07-24T04:55:08;3.15;;;1.45;;
10721;SDS011;5412;59.450;18.124;2022-07-24T04:57:34;2.45;;;1.30;;
10721;SDS011;5412;59.450;18.124;2022-07-24T05:00:00;1.42;;;1.33;;
10721;SDS011;5412;59.450;18.124;2022-07-24T05:02:25;1.52;;;1.42;;
10721;SDS011;5412;59.450;18.124;2022-07-24T05:04:51;1.65;;;1.55;;
10721;SDS011;5412;59.450;18.124;2022-07-24T05:07:17;1.30;;;1.20;;
10721;SDS011;5412;59.450;18.124;2022-07-24T05:09:42;2.13;;;1.60;;
10721;SDS011;5412;59.450;18.124;2022-07-24T05:12:08;1.80;;;1.70;;
10721;SDS011;5412;59.450;18.124;2022-07-24T05:14:33;1.83;;;1.55;;
10721;SDS011;5412;59.450;18.124;2022-07-24T05:16:59;1.45;;;1.35;;
10721;SDS011;5412;59.450;18.124;2022-07-24T05:19:25;2.50;;;1.40;;
10721;SDS011;5412;59.450;18.124;2022-07-24T05:21:50;1.50;;;1.35;;
10721;SDS011;5412;59.450;18.124;2022-07-24T05:24:16;1.30;;;1.20;;
10721;SDS011;5412;59.450;18.124;2022-07-24T05:26:41;2.85;;;1.38;;
10721;SDS011;5412;59.450;18.124;2022-07-24T05:29:07;1.10;;;1.10;;
10721;SDS011;5412;59.450;18.124;2022-07-24T05:31:33;1.30;;;1.20;;
10721;SDS011;5412;59.450;18.124;2022-07-24T05:33:58;2.63;;;1.30;;
10721;SDS011;5412;59.450;18.124;2022-07-24T05:36:27;1.17;;;1.08;;
10721;SDS011;5412;59.450;18.124;2022-07-24T05:38:52;2.90;;;1.30;;
10721;SDS011;5412;59.450;18.124;2022-07-24T05:41:18;1.40;;;1.30;;
10721;SDS011;5412;59.450;18.124;2022-07-24T05:43:44;1.17;;;1.10;;
10721;SDS011;5412;59.450;18.124;2022-07-24T05:46:09;1.10;;;1.10;;
10721;SDS011;5412;59.450;18.124;2022-07-24T05:48:35;1.20;;;1.20;;
10721;SDS011;5412;59.450;18.124;2022-07-24T05:51:00;1.30;;;1.20;;
10721;SDS011;5412;59.450;18.124;2022-07-24T05:53:26;1.40;;;1.30;;
10721;SDS011;5412;59.450;18.124;2022-07-24T05:55:52;1.63;;;1.52;;
10721;SDS011;5412;59.450;18.124;2022-07-24T05:58:17;3.55;;;1.30;;
10721;SDS011;5412;59.450;18.124;2022-07-24T06:00:43;1.40;;;1.30;;
10721;SDS011;5412;59.450;18.124;2022-07-24T06:03:09;1.20;;;1.10;;
10721;SDS011;5412;59.450;18.124;2022-07-24T06:05:35;2.33;;;1.40;;
10721;SDS011;5412;59.450;18.124;2022-07-24T06:08:01;1.50;;;1.40;;
10721;SDS011;5412;59.450;18.124;2022-07-24T06:10:26;1.30;;;1.20;;
10721;SDS011;5412;59.450;18.124;2022-07-24T06:12:52;1.15;;;1.02;;
10721;SDS011;5412;59.450;18.124;2022-07-24T06:15:18;1.23;;;1.10;;
10721;SDS011;5412;59.450;18.124;2022-07-24T06:17:43;2.38;;;1.20;;
10721;SDS011;5412;59.450;18.124;2022-07-24T06:20:10;2.47;;;1.10;;
10721;SDS011;5412;59.450;18.124;2022-07-24T06:22:37;1.30;;;1.20;;
10721;SDS011;5412;59.450;18.124;2022-07-24T06:25:06;3.08;;;1.00;;
10721;SDS011;5412;59.450;18.124;2022-07-24T06:27:32;1.75;;;1.35;;
10721;SDS011;5412;59.450;18.124;2022-07-24T06:29:57;2.35;;;1.25;;
10721;SDS011;5412;59.450;18.124;2022-07-24T06:32:23;4.15;;;1.20;;
10721;SDS011;5412;59.450;18.124;2022-07-24T06:34:49;1.00;;;1.00;;
10721;SDS011;5412;59.450;18.124;2022-07-24T06:37:14;1.05;;;0.95;;
10721;SDS011;5412;59.450;18.124;2022-07-24T06:39:40;0.98;;;0.98;;
10721;SDS011;5412;59.450;18.124;2022-07-24T06:42:06;1.05;;;0.95;;
10721;SDS011;5412;59.450;18.124;2022-07-24T06:44:31;1.30;;;1.20;;
10721;SDS011;5412;59.450;18.124;2022-07-24T06:46:58;1.95;;;1.00;;
10721;SDS011;5412;59.450;18.124;2022-07-24T06:49:24;4.13;;;1.20;;
10721;SDS011;5412;59.450;18.124;2022-07-24T06:51:50;1.00;;;1.00;;
10721;SDS011;5412;59.450;18.124;2022-07-24T06:54:15;0.90;;;0.90;;
10721;SDS011;5412;59.450;18.124;2022-07-24T06:56:41;0.95;;;0.95;;
10721;SDS011;5412;59.450;18.124;2022-07-24T06:59:06;1.35;;;0.85;;
10721;SDS011;5412;59.450;18.124;2022-07-24T07:01:32;1.10;;;1.00;;
10721;SDS011;5412;59.450;18.124;2022-07-24T07:03:58;0.90;;;0.85;;
10721;SDS011;5412;59.450;18.124;2022-07-24T07:06:23;0.95;;;0.90;;
10721;SDS011;5412;59.450;18.124;2022-07-24T07:08:49;0.88;;;0.88;;
10721;SDS011;5412;59.450;18.124;2022-07-24T07:11:14;0.80;;;0.80;;
10721;SDS011;5412;59.450;18.124;2022-07-24T07:13:40;0.82;;;0.82;;
10721;SDS011;5412;59.450;18.124;2022-07-24T07:16:06;0.60;;;0.60;;
10721;SDS011;5412;59.450;18.124;2022-07-24T07:18:31;0.60;;;0.60;;
10721;SDS011;5412;59.450;18.124;2022-07-24T07:20:57;2.08;;;0.90;;
10721;SDS011;5412;59.450;18.124;2022-07-24T07:23:23;0.93;;;0.93;;
10721;SDS011;5412;59.450;18.124;2022-07-24T07:25:49;0.70;;;0.70;;
10721;SDS011;5412;59.450;18.124;2022-07-24T07:28:15;0.60;;;0.60;;
10721;SDS011;5412;59.450;18.124;2022-07-24T07:30:41;0.70;;;0.70;;
10721;SDS011;5412;59.450;18.124;2022-07-24T07:33:06;0.70;;;0.70;;
10721;SDS011;5412;59.450;18.124;2022-07-24T07:35:32;2.03;;;0.80;;
10721;SDS011;5412;59.450;18.124;2022-07-24T07:37:58;0.80;;;0.80;;
10721;SDS011;5412;59.450;18.124;2022-07-24T07:40:24;0.55;;;0.55;;
10721;SDS011;5412;59.450;18.124;2022-07-24T07:42:50;0.70;;;0.70;;
10721;SDS011;5412;59.450;18.124;2022-07-24T07:45:15;0.60;;;0.60;;
10721;SDS011;5412;59.450;18.124;2022-07-24T07:47:41;0.90;;;0.90;;
10721;SDS011;5412;59.450;18.124;2022-07-24T07:50:07;0.68;;;0.68;;
10721;SDS011;5412;59.450;18.124;2022-07-24T07:52:33;0.50;;;0.50;;
10721;SDS011;5412;59.450;18.124;2022-07-24T07:54:59;1.13;;;0.50;;
10721;SDS011;5412;59.450;18.124;2022-07-24T07:57:24;0.60;;;0.60;;
10721;SDS011;5412;59.450;18.124;2022-07-24T07:59:50;0.50;;;0.50;;
10721;SDS011;5412;59.450;18.124;2022-07-24T08:02:16;0.60;;;0.60;;
10721;SDS011;5412;59.450;18.124;2022-07-24T08:04:41;0.63;;;0.57;;
10721;SDS011;5412;59.450;18.124;2022-07-24T08:07:07;0.60;;;0.60;;
10721;SDS011;5412;59.450;18.124;2022-07-24T08:09:32;0.93;;;0.60;;
10721;SDS011;5412;59.450;18.124;2022-07-24T08:11:58;0.70;;;0.70;;
10721;SDS011;5412;59.450;18.124;2022-07-24T08:14:24;0.93;;;0.70;;
10721;SDS011;5412;59.450;18.124;2022-07-24T08:16:49;0.70;;;0.70;;
10721;SDS011;5412;59.450;18.124;2022-07-24T08:19:15;0.60;;;0.60;;
10721;SDS011;5412;59.450;18.124;2022-07-24T08:21:41;0.55;;;0.55;;
10721;SDS011;5412;59.450;18.124;2022-07-24T08:24:07;0.60;;;0.60;;
10721;SDS011;5412;59.450;18.124;2022-07-24T08:26:32;1.00;;;0.70;;
10721;SDS011;5412;59.450;18.124;2022-07-24T08:28:58;0.60;;;0.60;;
10721;SDS011;5412;59.450;18.124;2022-07-24T08:31:27;0.63;;;0.57;;
10721;SDS011;5412;59.450;18.124;2022-07-24T08:33:53;0.75;;;0.75;;
10721;SDS011;5412;59.450;18.124;2022-07-24T08:36:18;0.57;;;0.57;;
10721;SDS011;5412;59.450;18.124;2022-07-24T08:38:44;0.63;;;0.63;;
10721;SDS011;5412;59.450;18.124;2022-07-24T08:41:11;0.55;;;0.55;;
10721;SDS011;5412;59.450;18.124;2022-07-24T08:43:38;0.70;;;0.70;;
10721;SDS011;5412;59.450;18.124;2022-07-24T08:46:04;1.55;;;0.70;;
10721;SDS011;5412;59.450;18.124;2022-07-24T08:48:33;0.50;;;0.50;;
10721;SDS011;5412;59.450;18.124;2022-07-24T08:51:00;0.60;;;0.60;;
10721;SDS011;5412;59.450;18.124;2022-07-24T08:53:27;0.52;;;0.52;;
10721;SDS011;5412;59.450;18.124;2022-07-24T08:55:52;0.70;;;0.60;;
10721;SDS011;5412;59.450;18.124;2022-07-24T08:58:18;1.95;;;0.40;;
10721;SDS011;5412;59.450;18.124;2022-07-24T09:00:44;1.35;;;0.68;;
10721;SDS011;5412;59.450;18.124;2022-07-24T09:03:10;0.55;;;0.55;;
10721;SDS011;5412;59.450;18.124;2022-07-24T09:05:53;0.55;;;0.55;;
10721;SDS011;5412;59.450;18.124;2022-07-24T09:08:23;0.57;;;0.57;;
10721;SDS011;5412;59.450;18.124;2022-07-24T09:10:59;0.40;;;0.40;;
10721;SDS011;5412;59.450;18.124;2022-07-24T09:13:28;0.60;;;0.60;;
10721;SDS011;5412;59.450;18.124;2022-07-24T09:16:16;0.60;;;0.60;;
10721;SDS011;5412;59.450;18.124;2022-07-24T09:19:01;0.50;;;0.50;;
10721;SDS011;5412;59.450;18.124;2022-07-24T09:21:36;1.17;;;0.70;;
10721;SDS011;5412;59.450;18.124;2022-07-24T09:24:17;0.60;;;0.60;;
10721;SDS011;5412;59.450;18.124;2022-07-24T09:26:47;0.60;;;0.60;;
10721;SDS011;5412;59.450;18.124;2022-07-24T09:29:14;1.15;;;0.60;;
10721;SDS011;5412;59.450;18.124;2022-07-24T09:31:50;0.50;;;0.50;;
10721;SDS011;5412;59.450;18.124;2022-07-24T09:34:23;0.60;;;0.60;;
10721;SDS011;5412;59.450;18.124;2022-07-24T09:37:03;1.42;;;0.60;;
10721;SDS011;5412;59.450;18.124;2022-07-24T09:39:31;0.73;;;0.73;;
10721;SDS011;5412;59.450;18.124;2022-07-24T09:41:58;0.57;;;0.57;;
10721;SDS011;5412;59.450;18.124;2022-07-24T09:44:25;0.50;;;0.50;;
10721;SDS011;5412;59.450;18.124;2022-07-24T09:46:54;0.70;;;0.50;;
10721;SDS011;5412;59.450;18.124;2022-07-24T09:49:22;1.25;;;0.88;;
10721;SDS011;5412;59.450;18.124;2022-07-24T09:52:05;0.60;;;0.60;;
10721;SDS011;5412;59.450;18.124;2022-07-24T09:54:36;0.60;;;0.60;;
10721;SDS011;5412;59.450;18.124;2022-07-24T09:57:25;0.57;;;0.57;;
10721;SDS011;5412;59.450;18.124;2022-07-24T10:02:21;0.77;;;0.60;;
10721;SDS011;5412;59.450;18.124;2022-07-24T10:04:49;1.00;;;0.70;;
10721;SDS011;5412;59.450;18.124;2022-07-24T10:07:16;0.50;;;0.50;;
10721;SDS011;5412;59.450;18.124;2022-07-24T10:09:44;1.65;;;0.65;;
10721;SDS011;5412;59.450;18.124;2022-07-24T10:12:13;1.25;;;0.60;;
10721;SDS011;5412;59.450;18.124;2022-07-24T10:14:40;0.60;;;0.60;;
10721;SDS011;5412;59.450;18.124;2022-07-24T10:17:08;1.27;;;0.55;;
10721;SDS011;5412;59.450;18.124;2022-07-24T10:20:08;0.70;;;0.65;;
10721;SDS011;5412;59.450;18.124;2022-07-24T10:22:29;0.73;;;0.70;;
10721;SDS011;5412;59.450;18.124;2022-07-24T10:25:06;0.45;;;0.45;;
10721;SDS011;5412;59.450;18.124;2022-07-24T10:27:34;0.73;;;0.60;;
10721;SDS011;5412;59.450;18.124;2022-07-24T10:30:09;0.47;;;0.47;;
10721;SDS011;5412;59.450;18.124;2022-07-24T10:32:36;0.40;;;0.40;;
10721;SDS011;5412;59.450;18.124;2022-07-24T10:35:08;1.02;;;0.60;;
10721;SDS011;5412;59.450;18.124;2022-07-24T10:37:52;0.50;;;0.50;;
10721;SDS011;5412;59.450;18.124;2022-07-24T10:40:48;0.40;;;0.40;;
10721;SDS011;5412;59.450;18.124;2022-07-24T10:43:19;0.73;;;0.57;;
10721;SDS011;5412;59.450;18.124;2022-07-24T10:46:09;0.47;;;0.47;;
10721;SDS011;5412;59.450;18.124;2022-07-24T10:48:35;0.40;;;0.40;;
10721;SDS011;5412;59.450;18.124;2022-07-24T11:01:30;0.60;;;0.60;;
10721;SDS011;5412;59.450;18.124;2022-07-24T11:03:59;0.60;;;0.60;;
10721;SDS011;5412;59.450;18.124;2022-07-24T11:06:52;0.50;;;0.50;;
10721;SDS011;5412;59.450;18.124;2022-07-24T11:09:19;0.50;;;0.50;;
10721;SDS011;5412;59.450;18.124;2022-07-24T11:14:25;1.98;;;0.60;;
10721;SDS011;5412;59.450;18.124;2022-07-24T11:20:10;0.75;;;0.75;;
10721;SDS011;5412;59.450;18.124;2022-07-24T11:22:47;0.60;;;0.60;;
10721;SDS011;5412;59.450;18.124;2022-07-24T11:27:50;0.65;;;0.60;;
10721;SDS011;5412;59.450;18.124;2022-07-24T11:30:19;0.60;;;0.60;;
10721;SDS011;5412;59.450;18.124;2022-07-24T11:32:45;0.47;;;0.47;;
10721;SDS011;5412;59.450;18.124;2022-07-24T11:35:12;0.80;;;0.80;;
10721;SDS011;5412;59.450;18.124;2022-07-24T11:37:38;0.70;;;0.70;;
10721;SDS011;5412;59.450;18.124;2022-07-24T11:40:05;4.05;;;0.80;;
10721;SDS011;5412;59.450;18.124;2022-07-24T11:42:32;0.65;;;0.65;;
10721;SDS011;5412;59.450;18.124;2022-07-24T11:44:59;0.70;;;0.70;;
10721;SDS011;5412;59.450;18.124;2022-07-24T11:47:25;2.25;;;0.77;;
10721;SDS011;5412;59.450;18.124;2022-07-24T11:52:24;0.73;;;0.68;;
10721;SDS011;5412;59.450;18.124;2022-07-24T11:54:53;0.70;;;0.70;;
10721;SDS011;5412;59.450;18.124;2022-07-24T11:57:23;0.65;;;0.65;;
10721;SDS011;5412;59.450;18.124;2022-07-24T11:59:51;0.63;;;0.63;;
10721;SDS011;5412;59.450;18.124;2022-07-24T12:02:17;0.73;;;0.73;;
10721;SDS011;5412;59.450;18.124;2022-07-24T12:04:45;0.80;;;0.80;;
10721;SDS011;5412;59.450;18.124;2022-07-24T12:07:13;0.77;;;0.77;;
10721;SDS011;5412;59.450;18.124;2022-07-24T12:12:23;1.75;;;0.88;;
10721;SDS011;5412;59.450;18.124;2022-07-24T12:17:29;0.93;;;0.80;;
10721;SDS011;5412;59.450;18.124;2022-07-24T12:19:59;0.75;;;0.75;;
10721;SDS011;5412;59.450;18.124;2022-07-24T12:22:26;0.80;;;0.80;;
10721;SDS011;5412;59.450;18.124;2022-07-24T12:24:53;0.85;;;0.85;;
10721;SDS011;5412;59.450;18.124;2022-07-24T12:27:33;0.90;;;0.90;;
10721;SDS011;5412;59.450;18.124;2022-07-24T12:30:00;1.25;;;1.00;;
10721;SDS011;5412;59.450;18.124;2022-07-24T12:32:26;1.45;;;0.80;;
10721;SDS011;5412;59.450;18.124;2022-07-24T12:34:51;0.80;;;0.80;;
10721;SDS011;5412;59.450;18.124;2022-07-24T12:37:18;2.47;;;0.90;;
10721;SDS011;5412;59.450;18.124;2022-07-24T12:39:51;1.00;;;1.00;;
10721;SDS011;5412;59.450;18.124;2022-07-24T12:42:18;0.90;;;0.90;;
10721;SDS011;5412;59.450;18.124;2022-07-24T12:45:05;1.33;;;0.90;;
10721;SDS011;5412;59.450;18.124;2022-07-24T12:47:32;0.82;;;0.82;;
10721;SDS011;5412;59.450;18.124;2022-07-24T12:49:58;1.20;;;1.00;;
10721;SDS011;5412;59.450;18.124;2022-07-24T12:52:37;0.80;;;0.80;;
10721;SDS011;5412;59.450;18.124;2022-07-24T12:55:03;0.90;;;0.90;;
10721;SDS011;5412;59.450;18.124;2022-07-24T12:57:43;2.67;;;1.00;;
10721;SDS011;5412;59.450;18.124;2022-07-24T13:00:09;1.00;;;1.00;;
10721;SDS011;5412;59.450;18.124;2022-07-24T13:02:35;1.98;;;1.20;;
10721;SDS011;5412;59.450;18.124;2022-07-24T13:05:01;1.20;;;1.10;;
10721;SDS011;5412;59.450;18.124;2022-07-24T13:07:27;2.55;;;1.00;;
10721;SDS011;5412;59.450;18.124;2022-07-24T13:09:53;1.10;;;1.10;;
10721;SDS011;5412;59.450;18.124;2022-07-24T13:12:19;0.82;;;0.82;;
10721;SDS011;5412;59.450;18.124;2022-07-24T13:14:45;1.10;;;1.10;;
10721;SDS011;5412;59.450;18.124;2022-07-24T13:17:12;1.42;;;1.05;;
10721;SDS011;5412;59.450;18.124;2022-07-24T13:19:43;0.95;;;0.95;;
10721;SDS011;5412;59.450;18.124;2022-07-24T13:22:09;0.98;;;0.98;;
10721;SDS011;5412;59.450;18.124;2022-07-24T13:24:36;1.05;;;1.00;;
10721;SDS011;5412;59.450;18.124;2022-07-24T13:27:02;3.75;;;1.13;;
10721;SDS011;5412;59.450;18.124;2022-07-24T13:29:29;3.42;;;0.93;;
10721;SDS011;5412;59.450;18.124;2022-07-24T13:31:55;1.80;;;1.13;;
10721;SDS011;5412;59.450;18.124;2022-07-24T13:34:20;0.90;;;0.90;;
10721;SDS011;5412;59.450;18.124;2022-07-24T13:36:47;0.90;;;0.90;;
10721;SDS011;5412;59.450;18.124;2022-07-24T13:39:13;4.20;;;0.82;;
10721;SDS011;5412;59.450;18.124;2022-07-24T13:41:39;1.65;;;1.02;;
10721;SDS011;5412;59.450;18.124;2022-07-24T13:44:05;0.90;;;0.90;;
10721;SDS011;5412;59.450;18.124;2022-07-24T13:46:31;0.90;;;0.90;;
10721;SDS011;5412;59.450;18.124;2022-07-24T13:49:00;1.02;;;1.00;;
10721;SDS011;5412;59.450;18.124;2022-07-24T13:51:26;0.82;;;0.82;;
10721;SDS011;5412;59.450;18.124;2022-07-24T13:53:53;0.90;;;0.90;;
10721;SDS011;5412;59.450;18.124;2022-07-24T13:56:18;0.82;;;0.82;;
10721;SDS011;5412;59.450;18.124;2022-07-24T13:58:44;0.80;;;0.80;;
10721;SDS011;5412;59.450;18.124;2022-07-24T14:01:10;0.80;;;0.80;;
10721;SDS011;5412;59.450;18.124;2022-07-24T14:03:38;0.90;;;0.90;;
10721;SDS011;5412;59.450;18.124;2022-07-24T14:06:07;0.90;;;0.90;;
10721;SDS011;5412;59.450;18.124;2022-07-24T14:08:33;0.90;;;0.90;;
10721;SDS011;5412;59.450;18.124;2022-07-24T14:10:59;0.90;;;0.90;;
10721;SDS011;5412;59.450;18.124;2022-07-24T14:13:24;2.33;;;0.77;;
10721;SDS011;5412;59.450;18.124;2022-07-24T14:15:50;1.88;;;0.90;;
10721;SDS011;5412;59.450;18.124;2022-07-24T14:18:16;1.10;;;1.00;;
10721;SDS011;5412;59.450;18.124;2022-07-24T14:20:41;2.28;;;0.90;;
10721;SDS011;5412;59.450;18.124;2022-07-24T14:23:07;1.13;;;0.90;;
10721;SDS011;5412;59.450;18.124;2022-07-24T14:25:32;0.70;;;0.70;;
10721;SDS011;5412;59.450;18.124;2022-07-24T14:27:58;1.00;;;0.90;;
10721;SDS011;5412;59.450;18.124;2022-07-24T14:30:24;3.65;;;1.00;;
10721;SDS011;5412;59.450;18.124;2022-07-24T14:32:49;1.13;;;1.00;;
10721;SDS011;5412;59.450;18.124;2022-07-24T14:35:15;1.45;;;1.10;;
10721;SDS011;5412;59.450;18.124;2022-07-24T14:37:41;1.40;;;1.30;;
10721;SDS011;5412;59.450;18.124;2022-07-24T14:40:07;2.28;;;1.00;;
10721;SDS011;5412;59.450;18.124;2022-07-24T14:42:33;0.90;;;0.90;;
10721;SDS011;5412;59.450;18.124;2022-07-24T14:44:59;1.85;;;0.90;;
10721;SDS011;5412;59.450;18.124;2022-07-24T14:47:25;0.88;;;0.88;;
10721;SDS011;5412;59.450;18.124;2022-07-24T14:49:51;0.90;;;0.90;;
10721;SDS011;5412;59.450;18.124;2022-07-24T14:52:16;0.90;;;0.90;;
10721;SDS011;5412;59.450;18.124;2022-07-24T14:54:45;3.08;;;1.15;;
10721;SDS011;5412;59.450;18.124;2022-07-24T14:57:11;1.30;;;1.20;;
10721;SDS011;5412;59.450;18.124;2022-07-24T14:59:37;1.92;;;1.00;;
10721;SDS011;5412;59.450;18.124;2022-07-24T15:02:03;1.67;;;1.20;;
10721;SDS011;5412;59.450;18.124;2022-07-24T15:04:29;0.90;;;0.90;;
10721;SDS011;5412;59.450;18.124;2022-07-24T15:06:54;1.10;;;1.10;;
10721;SDS011;5412;59.450;18.124;2022-07-24T15:09:20;1.00;;;1.00;;
10721;SDS011;5412;59.450;18.124;2022-07-24T15:11:45;0.80;;;0.80;;
10721;SDS011;5412;59.450;18.124;2022-07-24T15:14:11;0.85;;;0.85;;
10721;SDS011;5412;59.450;18.124;2022-07-24T15:16:37;0.90;;;0.90;;